sensor_id;sensor_type;location;lat;lon;timestamp;pressure;altitude;pressure_sealevel;temperature;humidity
41078;BME280;26823;42.662;23.352;2023-02-27T00:01:31;93912.44;;;10.85;57.74
41078;BME280;26823;42.662;23.352;2023-02-27T00:03:58;93903.91;;;10.77;58.17
41078;BME280;26823;42.662;23.352;2023-02-27T00:06:24;93924.88;;;10.86;58.29
41078;BME280;26823;42.662;23.352;2023-02-27T00:08:50;93911.63;;;10.84;57.95
41078;BME280;26823;42.662;23.352;2023-02-27T00:11:15;93889.31;;;10.65;58.26
41078;BME280;26823;42.662;23.352;2023-02-27T00:13:40;93910.94;;;10.65;58.79
41078;BME280;26823;42.662;23.352;2023-02-27T00:16:07;93901.41;;;10.39;59.46
41078;BME280;26823;42.662;23.352;2023-02-27T00:18:32;93906.03;;;10.53;59.13
41078;BME280;26823;42.662;23.352;2023-02-27T00:20:58;93915.44;;;10.55;59.50
41078;BME280;26823;42.662;23.352;2023-02-27T00:23:23;93895.50;;;10.51;59.20
41078;BME280;26823;42.662;23.352;2023-02-27T00:25:49;93911.16;;;10.54;59.49
41078;BME280;26823;42.662;23.352;2023-02-27T00:28:16;93903.16;;;10.16;60.72
41078;BME280;26823;42.662;23.352;2023-02-27T00:30:41;93887.09;;;9.78;61.57
41078;BME280;26823;42.662;23.352;2023-02-27T00:33:07;93905.50;;;9.90;61.98
41078;BME280;26823;42.662;23.352;2023-02-27T00:35:33;93921.31;;;9.96;61.91
41078;BME280;26823;42.662;23.352;2023-02-27T00:37:58;93909.66;;;10.01;61.59
41078;BME280;26823;42.662;23.352;2023-02-27T00:40:24;93894.44;;;10.05;61.19
41078;BME280;26823;42.662;23.352;2023-02-27T00:42:50;93888.03;;;10.01;61.32
41078;BME280;26823;42.662;23.352;2023-02-27T00:45:16;93884.94;;;10.08;61.00
41078;BME280;26823;42.662;23.352;2023-02-27T00:47:41;93895.00;;;9.88;62.06
41078;BME280;26823;42.662;23.352;2023-02-27T00:50:07;93885.91;;;9.98;61.13
41078;BME280;26823;42.662;23.352;2023-02-27T00:52:33;93896.63;;;9.89;62.34
41078;BME280;26823;42.662;23.352;2023-02-27T00:54:59;93901.31;;;9.98;61.94
41078;BME280;26823;42.662;23.352;2023-02-27T00:57:25;93916.75;;;9.97;61.91
41078;BME280;26823;42.662;23.352;2023-02-27T00:59:50;93909.72;;;9.96;62.05
41078;BME280;26823;42.662;23.352;2023-02-27T01:02:16;93913.94;;;10.02;61.79
41078;BME280;26823;42.662;23.352;2023-02-27T01:04:49;93909.53;;;9.92;62.25
41078;BME280;26823;42.662;23.352;2023-02-27T01:07:14;93900.91;;;9.90;61.73
41078;BME280;26823;42.662;23.352;2023-02-27T01:09:40;93900.03;;;9.95;61.50
41078;BME280;26823;42.662;23.352;2023-02-27T01:12:05;93903.63;;;10.04;61.45
41078;BME280;26823;42.662;23.352;2023-02-27T01:14:33;93901.63;;;9.96;61.96
41078;BME280;26823;42.662;23.352;2023-02-27T01:16:58;93919.44;;;9.97;62.20
41078;BME280;26823;42.662;23.352;2023-02-27T01:19:24;93911.81;;;9.99;61.94
41078;BME280;26823;42.662;23.352;2023-02-27T01:21:56;93914.03;;;9.97;62.11
41078;BME280;26823;42.662;23.352;2023-02-27T01:24:28;93882.28;;;9.89;62.25
41078;BME280;26823;42.662;23.352;2023-02-27T01:26:53;93910.56;;;10.10;61.78
41078;BME280;26823;42.662;23.352;2023-02-27T01:29:19;93870.00;;;9.96;61.22
41078;BME280;26823;42.662;23.352;2023-02-27T01:31:44;93899.75;;;10.10;61.27
41078;BME280;26823;42.662;23.352;2023-02-27T01:34:09;93908.28;;;10.18;61.08
41078;BME280;26823;42.662;23.352;2023-02-27T01:36:35;93882.13;;;10.13;61.34
41078;BME280;26823;42.662;23.352;2023-02-27T01:39:00;93929.31;;;10.35;61.42
41078;BME280;26823;42.662;23.352;2023-02-27T01:41:26;93919.69;;;10.15;61.78
41078;BME280;26823;42.662;23.352;2023-02-27T01:44:00;93939.00;;;10.22;61.95
41078;BME280;26823;42.662;23.352;2023-02-27T01:46:27;93946.44;;;10.30;61.33
41078;BME280;26823;42.662;23.352;2023-02-27T01:48:59;93968.69;;;10.08;62.21
41078;BME280;26823;42.662;23.352;2023-02-27T01:51:30;93961.66;;;10.07;62.09
41078;BME280;26823;42.662;23.352;2023-02-27T01:53:56;93974.53;;;10.15;62.23
41078;BME280;26823;42.662;23.352;2023-02-27T01:56:26;93983.06;;;10.22;62.63
41078;BME280;26823;42.662;23.352;2023-02-27T01:58:56;93959.22;;;10.24;62.07
41078;BME280;26823;42.662;23.352;2023-02-27T02:01:22;93952.41;;;10.27;61.99
41078;BME280;26823;42.662;23.352;2023-02-27T02:03:54;93950.28;;;10.10;62.57
41078;BME280;26823;42.662;23.352;2023-02-27T02:06:21;93948.38;;;10.10;62.02
41078;BME280;26823;42.662;23.352;2023-02-27T02:08:48;93983.00;;;10.08;62.76
41078;BME280;26823;42.662;23.352;2023-02-27T02:11:15;93999.41;;;10.12;62.93
41078;BME280;26823;42.662;23.352;2023-02-27T02:13:42;94024.78;;;9.97;63.45
41078;BME280;26823;42.662;23.352;2023-02-27T02:16:19;94014.22;;;10.01;64.13
41078;BME280;26823;42.662;23.352;2023-02-27T02:40:53;94138.94;;;9.40;88.50
41078;BME280;26823;42.662;23.352;2023-02-27T02:43:33;94141.47;;;9.32;87.21
41078;BME280;26823;42.662;23.352;2023-02-27T02:46:09;94150.53;;;9.41;87.60
41078;BME280;26823;42.662;23.352;2023-02-27T02:48:48;94160.47;;;9.45;87.19
41078;BME280;26823;42.662;23.352;2023-02-27T02:51:19;94177.47;;;9.46;86.36
41078;BME280;26823;42.662;23.352;2023-02-27T02:53:58;94181.84;;;9.42;86.87
41078;BME280;26823;42.662;23.352;2023-02-27T02:56:36;94196.31;;;9.51;86.37
41078;BME280;26823;42.662;23.352;2023-02-27T02:59:40;94203.44;;;9.42;85.03
41078;BME280;26823;42.662;23.352;2023-02-27T03:02:11;94207.50;;;9.39;84.21
41078;BME280;26823;42.662;23.352;2023-02-27T03:04:45;94209.19;;;9.35;84.26
41078;BME280;26823;42.662;23.352;2023-02-27T03:07:29;94219.06;;;9.16;84.26
41078;BME280;26823;42.662;23.352;2023-02-27T03:10:03;94239.56;;;9.17;84.79
41078;BME280;26823;42.662;23.352;2023-02-27T03:12:32;94238.63;;;9.02;85.30
41078;BME280;26823;42.662;23.352;2023-02-27T03:17:45;94206.25;;;9.02;86.07
41078;BME280;26823;42.662;23.352;2023-02-27T03:20:21;94215.66;;;9.05;84.38
41078;BME280;26823;42.662;23.352;2023-02-27T03:22:51;94237.13;;;8.86;87.44
41078;BME280;26823;42.662;23.352;2023-02-27T03:25:20;94235.44;;;8.60;86.42
41078;BME280;26823;42.662;23.352;2023-02-27T03:27:56;94257.06;;;8.45;83.81
41078;BME280;26823;42.662;23.352;2023-02-27T03:30:32;94277.31;;;8.32;80.24
41078;BME280;26823;42.662;23.352;2023-02-27T03:33:04;94268.09;;;7.88;81.37
41078;BME280;26823;42.662;23.352;2023-02-27T03:41:19;94327.69;;;7.30;84.35
41078;BME280;26823;42.662;23.352;2023-02-27T03:43:55;94321.47;;;7.14;85.35
41078;BME280;26823;42.662;23.352;2023-02-27T03:46:25;94346.22;;;7.21;85.07
41078;BME280;26823;42.662;23.352;2023-02-27T03:48:52;94342.44;;;7.12;85.03
41078;BME280;26823;42.662;23.352;2023-02-27T03:51:22;94328.75;;;7.03;86.28
41078;BME280;26823;42.662;23.352;2023-02-27T03:54:08;94342.72;;;7.15;85.47
41078;BME280;26823;42.662;23.352;2023-02-27T03:57:03;94307.75;;;6.69;86.05
41078;BME280;26823;42.662;23.352;2023-02-27T03:59:29;94329.25;;;6.74;88.26
41078;BME280;26823;42.662;23.352;2023-02-27T04:01:55;94358.81;;;6.79;88.09
41078;BME280;26823;42.662;23.352;2023-02-27T04:04:22;94360.97;;;6.82;88.13
41078;BME280;26823;42.662;23.352;2023-02-27T04:06:54;94344.81;;;6.67;88.55
41078;BME280;26823;42.662;23.352;2023-02-27T04:17:43;94360.91;;;6.62;89.04
41078;BME280;26823;42.662;23.352;2023-02-27T04:22:57;94374.53;;;6.40;89.82
41078;BME280;26823;42.662;23.352;2023-02-27T04:25:44;94380.22;;;6.48;89.85
41078;BME280;26823;42.662;23.352;2023-02-27T04:28:29;94393.41;;;6.50;87.17
41078;BME280;26823;42.662;23.352;2023-02-27T04:31:12;94371.06;;;6.39;86.72
41078;BME280;26823;42.662;23.352;2023-02-27T04:33:48;94403.91;;;6.57;86.32
41078;BME280;26823;42.662;23.352;2023-02-27T04:36:22;94414.94;;;6.60;85.17
41078;BME280;26823;42.662;23.352;2023-02-27T04:41:35;94423.44;;;6.36;86.47
41078;BME280;26823;42.662;23.352;2023-02-27T04:44:04;94441.63;;;6.24;87.87
41078;BME280;26823;42.662;23.352;2023-02-27T04:46:33;94441.66;;;6.29;88.54
41078;BME280;26823;42.662;23.352;2023-02-27T04:49:07;94456.44;;;6.32;87.49
41078;BME280;26823;42.662;23.352;2023-02-27T04:52:07;94457.97;;;6.17;88.37
41078;BME280;26823;42.662;23.352;2023-02-27T04:54:54;94462.72;;;6.05;88.33
41078;BME280;26823;42.662;23.352;2023-02-27T04:57:29;94465.44;;;6.10;87.84
41078;BME280;26823;42.662;23.352;2023-02-27T04:59:57;94462.50;;;6.12;86.56
41078;BME280;26823;42.662;23.352;2023-02-27T05:02:28;94458.84;;;6.28;86.12
41078;BME280;26823;42.662;23.352;2023-02-27T05:04:59;94472.56;;;6.32;86.09
41078;BME280;26823;42.662;23.352;2023-02-27T05:07:31;94472.56;;;6.37;85.58
41078;BME280;26823;42.662;23.352;2023-02-27T05:10:11;94457.78;;;6.34;84.70
41078;BME280;26823;42.662;23.352;2023-02-27T05:17:49;94499.88;;;6.18;87.23
41078;BME280;26823;42.662;23.352;2023-02-27T05:20:16;94511.66;;;6.12;86.42
41078;BME280;26823;42.662;23.352;2023-02-27T05:25:58;94509.41;;;6.42;85.65
41078;BME280;26823;42.662;23.352;2023-02-27T05:28:39;94532.56;;;6.48;84.79
41078;BME280;26823;42.662;23.352;2023-02-27T05:31:09;94541.16;;;6.45;84.69
41078;BME280;26823;42.662;23.352;2023-02-27T05:34:22;94524.19;;;6.39;84.87
41078;BME280;26823;42.662;23.352;2023-02-27T05:36:58;94522.94;;;6.57;84.41
41078;BME280;26823;42.662;23.352;2023-02-27T05:39:27;94535.84;;;6.55;82.73
41078;BME280;26823;42.662;23.352;2023-02-27T05:42:04;94538.38;;;6.34;83.92
41078;BME280;26823;42.662;23.352;2023-02-27T05:44:33;94533.72;;;6.19;84.53
41078;BME280;26823;42.662;23.352;2023-02-27T05:47:12;94541.66;;;6.42;84.28
41078;BME280;26823;42.662;23.352;2023-02-27T05:49:43;94542.28;;;6.54;84.37
41078;BME280;26823;42.662;23.352;2023-02-27T05:52:14;94512.09;;;6.42;84.60
41078;BME280;26823;42.662;23.352;2023-02-27T05:57:21;94531.28;;;6.61;81.97
41078;BME280;26823;42.662;23.352;2023-02-27T06:02:36;94559.63;;;6.84;79.86
41078;BME280;26823;42.662;23.352;2023-02-27T06:05:02;94550.75;;;6.78;79.65
41078;BME280;26823;42.662;23.352;2023-02-27T06:07:30;94577.22;;;7.02;80.11
41078;BME280;26823;42.662;23.352;2023-02-27T06:09:56;94576.97;;;7.09;80.01
41078;BME280;26823;42.662;23.352;2023-02-27T06:12:22;94559.69;;;6.89;80.53
41078;BME280;26823;42.662;23.352;2023-02-27T06:14:47;94576.38;;;6.96;80.38
41078;BME280;26823;42.662;23.352;2023-02-27T06:17:13;94571.56;;;7.04;80.10
41078;BME280;26823;42.662;23.352;2023-02-27T06:19:38;94566.75;;;7.06;79.92
41078;BME280;26823;42.662;23.352;2023-02-27T06:22:04;94572.19;;;7.21;79.76
41078;BME280;26823;42.662;23.352;2023-02-27T06:24:29;94570.88;;;7.34;79.48
41078;BME280;26823;42.662;23.352;2023-02-27T06:26:54;94574.16;;;7.51;77.62
41078;BME280;26823;42.662;23.352;2023-02-27T06:29:20;94573.84;;;7.38;76.99
41078;BME280;26823;42.662;23.352;2023-02-27T06:31:45;94592.75;;;7.53;77.04
41078;BME280;26823;42.662;23.352;2023-02-27T06:34:11;94592.75;;;7.63;76.93
41078;BME280;26823;42.662;23.352;2023-02-27T06:36:36;94596.59;;;7.93;76.22
41078;BME280;26823;42.662;23.352;2023-02-27T06:39:02;94615.22;;;8.10;74.02
41078;BME280;26823;42.662;23.352;2023-02-27T06:41:29;94602.00;;;8.19;72.66
41078;BME280;26823;42.662;23.352;2023-02-27T06:43:54;94617.13;;;8.25;72.29
41078;BME280;26823;42.662;23.352;2023-02-27T06:46:20;94603.09;;;8.23;72.14
41078;BME280;26823;42.662;23.352;2023-02-27T06:48:46;94602.28;;;8.23;71.73
41078;BME280;26823;42.662;23.352;2023-02-27T06:51:11;94611.72;;;8.25;71.82
41078;BME280;26823;42.662;23.352;2023-02-27T06:53:36;94621.97;;;8.33;70.82
41078;BME280;26823;42.662;23.352;2023-02-27T06:56:02;94613.53;;;7.83;75.54
41078;BME280;26823;42.662;23.352;2023-02-27T06:58:27;94621.13;;;8.07;74.32
41078;BME280;26823;42.662;23.352;2023-02-27T07:00:53;94598.25;;;8.10;73.86
41078;BME280;26823;42.662;23.352;2023-02-27T07:03:18;94605.81;;;8.28;73.40
41078;BME280;26823;42.662;23.352;2023-02-27T07:05:44;94592.34;;;8.33;71.36
41078;BME280;26823;42.662;23.352;2023-02-27T07:08:10;94616.59;;;8.33;70.85
41078;BME280;26823;42.662;23.352;2023-02-27T07:10:35;94614.44;;;8.56;70.57
41078;BME280;26823;42.662;23.352;2023-02-27T07:13:01;94614.97;;;8.94;69.59
41078;BME280;26823;42.662;23.352;2023-02-27T07:15:27;94617.22;;;9.48;67.80
41078;BME280;26823;42.662;23.352;2023-02-27T07:17:52;94621.50;;;9.54;65.32
41078;BME280;26823;42.662;23.352;2023-02-27T07:20:18;94614.50;;;9.53;66.34
41078;BME280;26823;42.662;23.352;2023-02-27T07:22:44;94618.75;;;10.14;65.03
41078;BME280;26823;42.662;23.352;2023-02-27T07:25:09;94618.84;;;10.43;62.15
41078;BME280;26823;42.662;23.352;2023-02-27T07:27:35;94619.06;;;10.87;61.44
41078;BME280;26823;42.662;23.352;2023-02-27T07:30:00;94635.81;;;11.42;59.12
41078;BME280;26823;42.662;23.352;2023-02-27T07:32:26;94637.47;;;11.38;59.10
41078;BME280;26823;42.662;23.352;2023-02-27T07:34:52;94625.78;;;11.43;57.86
41078;BME280;26823;42.662;23.352;2023-02-27T07:37:18;94636.34;;;11.15;59.51
41078;BME280;26823;42.662;23.352;2023-02-27T07:39:43;94635.84;;;11.37;58.40
41078;BME280;26823;42.662;23.352;2023-02-27T07:42:09;94626.19;;;11.31;58.41
41078;BME280;26823;42.662;23.352;2023-02-27T07:44:34;94616.56;;;11.20;58.40
41078;BME280;26823;42.662;23.352;2023-02-27T07:47:00;94651.81;;;11.15;58.97
41078;BME280;26823;42.662;23.352;2023-02-27T07:49:26;94657.91;;;11.25;57.92
41078;BME280;26823;42.662;23.352;2023-02-27T07:51:51;94647.78;;;11.36;56.82
41078;BME280;26823;42.662;23.352;2023-02-27T07:54:16;94631.97;;;11.19;57.44
41078;BME280;26823;42.662;23.352;2023-02-27T07:56:42;94644.59;;;11.53;57.02
41078;BME280;26823;42.662;23.352;2023-02-27T07:59:07;94659.53;;;11.26;56.87
41078;BME280;26823;42.662;23.352;2023-02-27T08:01:33;94658.38;;;11.81;56.76
41078;BME280;26823;42.662;23.352;2023-02-27T08:03:58;94662.59;;;11.68;54.50
41078;BME280;26823;42.662;23.352;2023-02-27T08:06:24;94650.84;;;11.78;55.11
41078;BME280;26823;42.662;23.352;2023-02-27T08:08:50;94665.72;;;12.24;54.18
41078;BME280;26823;42.662;23.352;2023-02-27T08:11:16;94650.09;;;12.16;52.47
41078;BME280;26823;42.662;23.352;2023-02-27T08:13:42;94659.91;;;12.31;53.95
41078;BME280;26823;42.662;23.352;2023-02-27T08:16:09;94635.72;;;12.53;54.04
41078;BME280;26823;42.662;23.352;2023-02-27T08:18:35;94650.09;;;13.20;50.85
41078;BME280;26823;42.662;23.352;2023-02-27T08:21:01;94667.31;;;13.29;48.88
41078;BME280;26823;42.662;23.352;2023-02-27T08:23:29;94666.56;;;12.57;51.41
41078;BME280;26823;42.662;23.352;2023-02-27T08:25:55;94670.34;;;12.43;54.10
41078;BME280;26823;42.662;23.352;2023-02-27T08:28:21;94672.97;;;12.48;52.93
41078;BME280;26823;42.662;23.352;2023-02-27T08:30:47;94642.19;;;11.95;54.52
41078;BME280;26823;42.662;23.352;2023-02-27T08:33:13;94665.97;;;12.80;51.25
41078;BME280;26823;42.662;23.352;2023-02-27T08:35:38;94665.91;;;12.66;52.66
41078;BME280;26823;42.662;23.352;2023-02-27T08:38:04;94665.91;;;12.66;53.12
41078;BME280;26823;42.662;23.352;2023-02-27T08:40:29;94655.53;;;13.20;51.97
41078;BME280;26823;42.662;23.352;2023-02-27T08:42:55;94664.94;;;13.42;50.04
41078;BME280;26823;42.662;23.352;2023-02-27T08:45:20;94647.06;;;11.98;51.89
41078;BME280;26823;42.662;23.352;2023-02-27T08:47:46;94656.63;;;11.90;54.48
41078;BME280;26823;42.662;23.352;2023-02-27T08:50:11;94654.25;;;12.27;54.78
41078;BME280;26823;42.662;23.352;2023-02-27T08:52:37;94669.88;;;12.73;53.45
41078;BME280;26823;42.662;23.352;2023-02-27T08:55:09;94663.47;;;13.16;52.03
41078;BME280;26823;42.662;23.352;2023-02-27T08:57:34;94665.84;;;13.37;50.08
41078;BME280;26823;42.662;23.352;2023-02-27T09:00:00;94682.63;;;12.73;51.78
41078;BME280;26823;42.662;23.352;2023-02-27T09:02:25;94684.72;;;12.95;52.49
41078;BME280;26823;42.662;23.352;2023-02-27T09:04:52;94680.16;;;13.43;50.07
41078;BME280;26823;42.662;23.352;2023-02-27T09:07:18;94684.00;;;13.23;50.15
41078;BME280;26823;42.662;23.352;2023-02-27T09:09:43;94689.66;;;13.07;51.71
41078;BME280;26823;42.662;23.352;2023-02-27T09:12:09;94701.94;;;13.04;51.19
41078;BME280;26823;42.662;23.352;2023-02-27T09:14:35;94697.53;;;12.56;53.25
41078;BME280;26823;42.662;23.352;2023-02-27T09:17:03;94696.47;;;12.71;52.50
41078;BME280;26823;42.662;23.352;2023-02-27T09:19:28;94690.56;;;12.69;53.48
41078;BME280;26823;42.662;23.352;2023-02-27T09:21:53;94692.72;;;12.86;51.63
41078;BME280;26823;42.662;23.352;2023-02-27T09:24:19;94692.94;;;12.90;51.53
41078;BME280;26823;42.662;23.352;2023-02-27T09:26:44;94698.75;;;12.83;51.65
41078;BME280;26823;42.662;23.352;2023-02-27T09:29:10;94707.38;;;13.04;51.95
41078;BME280;26823;42.662;23.352;2023-02-27T09:31:35;94700.13;;;13.00;52.67
41078;BME280;26823;42.662;23.352;2023-02-27T09:34:01;94698.34;;;13.42;51.25
41078;BME280;26823;42.662;23.352;2023-02-27T09:36:27;94694.56;;;13.71;49.53
41078;BME280;26823;42.662;23.352;2023-02-27T09:38:54;94701.00;;;13.89;49.60
41078;BME280;26823;42.662;23.352;2023-02-27T09:41:45;94707.72;;;13.64;51.33
41078;BME280;26823;42.662;23.352;2023-02-27T09:44:23;94698.38;;;13.84;50.04
41078;BME280;26823;42.662;23.352;2023-02-27T09:46:49;94706.22;;;13.72;49.55
41078;BME280;26823;42.662;23.352;2023-02-27T09:49:18;94710.84;;;13.57;51.02
41078;BME280;26823;42.662;23.352;2023-02-27T09:51:45;94717.06;;;13.58;51.00
41078;BME280;26823;42.662;23.352;2023-02-27T09:54:11;94709.97;;;13.62;51.12
41078;BME280;26823;42.662;23.352;2023-02-27T09:57:17;94711.13;;;13.42;50.61
41078;BME280;26823;42.662;23.352;2023-02-27T09:59:54;94721.47;;;13.40;50.97
41078;BME280;26823;42.662;23.352;2023-02-27T10:07:28;94737.56;;;12.65;52.57
41078;BME280;26823;42.662;23.352;2023-02-27T10:15:41;94738.88;;;12.05;55.95
41078;BME280;26823;42.662;23.352;2023-02-27T10:18:20;94726.47;;;12.42;54.96
41078;BME280;26823;42.662;23.352;2023-02-27T10:21:10;94733.28;;;12.78;54.24
41078;BME280;26823;42.662;23.352;2023-02-27T10:23:45;94731.53;;;12.49;54.60
41078;BME280;26823;42.662;23.352;2023-02-27T10:26:25;94717.13;;;12.10;55.30
41078;BME280;26823;42.662;23.352;2023-02-27T10:28:52;94712.59;;;12.24;55.09
41078;BME280;26823;42.662;23.352;2023-02-27T10:31:24;94703.03;;;11.84;56.90
41078;BME280;26823;42.662;23.352;2023-02-27T10:33:52;94730.69;;;12.10;56.13
41078;BME280;26823;42.662;23.352;2023-02-27T10:36:20;94718.66;;;11.97;56.64
41078;BME280;26823;42.662;23.352;2023-02-27T10:38:50;94722.91;;;12.03;56.79
41078;BME280;26823;42.662;23.352;2023-02-27T10:41:17;94728.94;;;11.71;58.41
41078;BME280;26823;42.662;23.352;2023-02-27T10:43:44;94719.13;;;11.75;58.35
41078;BME280;26823;42.662;23.352;2023-02-27T10:46:24;94698.47;;;11.79;57.46
41078;BME280;26823;42.662;23.352;2023-02-27T10:48:50;94717.38;;;11.60;58.74
41078;BME280;26823;42.662;23.352;2023-02-27T10:53:46;94713.53;;;11.13;60.92
41078;BME280;26823;42.662;23.352;2023-02-27T10:56:15;94718.16;;;11.07;61.50
41078;BME280;26823;42.662;23.352;2023-02-27T10:58:42;94717.16;;;10.63;63.82
41078;BME280;26823;42.662;23.352;2023-02-27T11:01:09;94727.38;;;10.71;63.16
41078;BME280;26823;42.662;23.352;2023-02-27T11:03:39;94721.53;;;10.93;62.66
41078;BME280;26823;42.662;23.352;2023-02-27T11:06:11;94723.72;;;11.21;61.97
41078;BME280;26823;42.662;23.352;2023-02-27T11:08:37;94683.94;;;11.21;61.06
41078;BME280;26823;42.662;23.352;2023-02-27T11:11:08;94699.00;;;11.57;60.87
41078;BME280;26823;42.662;23.352;2023-02-27T11:13:37;94700.09;;;11.32;61.16
41078;BME280;26823;42.662;23.352;2023-02-27T11:16:05;94715.59;;;11.21;61.74
41078;BME280;26823;42.662;23.352;2023-02-27T11:18:32;94673.75;;;10.79;62.52
41078;BME280;26823;42.662;23.352;2023-02-27T11:23:57;94694.25;;;11.97;61.53
41078;BME280;26823;42.662;23.352;2023-02-27T11:31:43;94691.06;;;12.33;59.27
41078;BME280;26823;42.662;23.352;2023-02-27T11:34:36;94681.81;;;12.72;58.58
41078;BME280;26823;42.662;23.352;2023-02-27T11:37:05;94685.69;;;12.85;58.88
41078;BME280;26823;42.662;23.352;2023-02-27T11:42:27;94691.09;;;13.18;55.58
41078;BME280;26823;42.662;23.352;2023-02-27T11:45:02;94706.97;;;12.78;57.41
41078;BME280;26823;42.662;23.352;2023-02-27T11:47:32;94700.56;;;12.88;58.89
41078;BME280;26823;42.662;23.352;2023-02-27T11:52:54;94696.53;;;12.85;58.95
41078;BME280;26823;42.662;23.352;2023-02-27T11:55:23;94685.50;;;12.96;56.94
41078;BME280;26823;42.662;23.352;2023-02-27T11:57:56;94687.16;;;13.11;56.67
41078;BME280;26823;42.662;23.352;2023-02-27T12:00:44;94690.19;;;13.42;56.24
41078;BME280;26823;42.662;23.352;2023-02-27T12:06:03;94678.38;;;14.44;53.40
41078;BME280;26823;42.662;23.352;2023-02-27T12:08:46;94685.44;;;14.82;50.73
41078;BME280;26823;42.662;23.352;2023-02-27T12:11:25;94680.25;;;15.17;49.83
41078;BME280;26823;42.662;23.352;2023-02-27T12:16:50;94669.22;;;14.77;49.86
41078;BME280;26823;42.662;23.352;2023-02-27T12:19:28;94684.81;;;15.30;49.19
41078;BME280;26823;42.662;23.352;2023-02-27T12:22:02;94690.78;;;15.41;48.32
41078;BME280;26823;42.662;23.352;2023-02-27T12:24:47;94676.78;;;15.25;48.40
41078;BME280;26823;42.662;23.352;2023-02-27T12:27:22;94637.50;;;14.95;48.66
41078;BME280;26823;42.662;23.352;2023-02-27T12:29:53;94595.00;;;14.48;48.91
41078;BME280;26823;42.662;23.352;2023-02-27T12:33:31;94688.09;;;14.73;49.50
41078;BME280;26823;42.662;23.352;2023-02-27T12:35:30;94674.25;;;14.47;50.16
41078;BME280;26823;42.662;23.352;2023-02-27T12:37:57;94678.06;;;14.46;51.17
41078;BME280;26823;42.662;23.352;2023-02-27T12:40:41;94662.38;;;14.43;50.80
41078;BME280;26823;42.662;23.352;2023-02-27T12:43:35;94671.06;;;14.67;51.34
41078;BME280;26823;42.662;23.352;2023-02-27T13:10:15;94680.78;;;14.46;51.33
41078;BME280;26823;42.662;23.352;2023-02-27T13:12:49;94680.06;;;14.40;51.77
41078;BME280;26823;42.662;23.352;2023-02-27T13:15:23;94683.63;;;14.41;51.65
41078;BME280;26823;42.662;23.352;2023-02-27T13:17:56;94688.75;;;14.42;52.07
41078;BME280;26823;42.662;23.352;2023-02-27T13:20:32;94682.91;;;14.35;52.61
41078;BME280;26823;42.662;23.352;2023-02-27T13:26:17;94667.66;;;14.11;53.08
41078;BME280;26823;42.662;23.352;2023-02-27T13:28:45;94654.56;;;14.13;53.07
41078;BME280;26823;42.662;23.352;2023-02-27T13:31:21;94663.34;;;13.96;54.12
41078;BME280;26823;42.662;23.352;2023-02-27T13:34:01;94653.16;;;14.02;54.44
41078;BME280;26823;42.662;23.352;2023-02-27T13:36:41;94659.72;;;14.01;54.43
41078;BME280;26823;42.662;23.352;2023-02-27T13:42:02;94653.88;;;13.94;56.85
41078;BME280;26823;42.662;23.352;2023-02-27T13:44:39;94662.34;;;13.92;55.69
41078;BME280;26823;42.662;23.352;2023-02-27T13:47:41;94656.81;;;13.83;55.48
41078;BME280;26823;42.662;23.352;2023-02-27T13:52:43;94679.28;;;13.28;57.03
41078;BME280;26823;42.662;23.352;2023-02-27T13:55:28;94694.81;;;12.76;59.64
41078;BME280;26823;42.662;23.352;2023-02-27T13:57:57;94704.91;;;12.70;59.68
41078;BME280;26823;42.662;23.352;2023-02-27T14:00:25;94697.72;;;12.79;59.77
41078;BME280;26823;42.662;23.352;2023-02-27T14:02:56;94661.91;;;12.25;60.37
41078;BME280;26823;42.662;23.352;2023-02-27T14:05:42;94714.31;;;11.72;62.12
41078;BME280;26823;42.662;23.352;2023-02-27T14:08:22;94699.31;;;11.55;63.21
41078;BME280;26823;42.662;23.352;2023-02-27T14:11:40;94689.38;;;11.70;62.51
41078;BME280;26823;42.662;23.352;2023-02-27T14:18:59;94690.59;;;11.58;62.04
41078;BME280;26823;42.662;23.352;2023-02-27T14:21:55;94697.41;;;11.56;61.77
41078;BME280;26823;42.662;23.352;2023-02-27T14:24:26;94679.81;;;11.29;60.90
41078;BME280;26823;42.662;23.352;2023-02-27T14:26:53;94724.91;;;11.09;62.89
41078;BME280;26823;42.662;23.352;2023-02-27T14:29:22;94728.00;;;10.58;63.93
41078;BME280;26823;42.662;23.352;2023-02-27T14:31:49;94723.28;;;10.74;63.95
41078;BME280;26823;42.662;23.352;2023-02-27T14:34:19;94716.06;;;10.64;62.96
41078;BME280;26823;42.662;23.352;2023-02-27T14:36:48;94715.94;;;10.40;64.08
41078;BME280;26823;42.662;23.352;2023-02-27T14:39:27;94711.38;;;10.75;64.61
41078;BME280;26823;42.662;23.352;2023-02-27T14:44:46;94741.41;;;10.23;64.47
41078;BME280;26823;42.662;23.352;2023-02-27T14:47:36;94729.44;;;10.35;64.33
41078;BME280;26823;42.662;23.352;2023-02-27T14:50:04;94742.31;;;9.98;66.24
41078;BME280;26823;42.662;23.352;2023-02-27T14:52:40;94741.63;;;9.67;67.51
41078;BME280;26823;42.662;23.352;2023-02-27T14:55:19;94730.19;;;9.90;67.21
41078;BME280;26823;42.662;23.352;2023-02-27T14:58:00;94750.59;;;9.36;69.04
41078;BME280;26823;42.662;23.352;2023-02-27T15:00:39;94757.88;;;9.30;69.58
41078;BME280;26823;42.662;23.352;2023-02-27T15:03:18;94758.66;;;9.57;69.43
41078;BME280;26823;42.662;23.352;2023-02-27T15:05:46;94773.19;;;9.71;69.17
41078;BME280;26823;42.662;23.352;2023-02-27T15:08:18;94782.69;;;9.58;69.91
41078;BME280;26823;42.662;23.352;2023-02-27T15:10:44;94772.97;;;9.57;70.22
41078;BME280;26823;42.662;23.352;2023-02-27T15:13:22;94807.03;;;9.38;72.77
41078;BME280;26823;42.662;23.352;2023-02-27T15:15:48;94795.66;;;9.41;74.98
41078;BME280;26823;42.662;23.352;2023-02-27T15:18:16;94797.03;;;9.28;77.05
41078;BME280;26823;42.662;23.352;2023-02-27T15:20:42;94776.25;;;8.82;78.31
41078;BME280;26823;42.662;23.352;2023-02-27T15:23:34;94802.66;;;8.70;80.11
41078;BME280;26823;42.662;23.352;2023-02-27T15:25:59;94805.91;;;8.87;80.13